createdAt,value
2018-03-24T00:02:08.562Z,5.80
2018-03-24T00:04:34.964Z,5.80
2018-03-24T00:07:01.415Z,5.70
2018-03-24T00:09:27.821Z,5.60
2018-03-24T00:11:54.992Z,5.50
2018-03-24T00:14:21.439Z,5.50
2018-03-24T00:16:47.805Z,5.50
2018-03-24T00:19:14.256Z,5.40
2018-03-24T00:21:40.686Z,5.40
2018-03-24T00:24:07.063Z,5.30
2018-03-24T00:26:33.568Z,5.20
2018-03-24T00:29:00.698Z,5.00
2018-03-24T00:31:27.139Z,5.00
2018-03-24T00:33:54.289Z,4.90
2018-03-24T00:36:22.292Z,4.90
2018-03-24T00:38:48.667Z,4.90
2018-03-24T00:41:15.144Z,4.80
2018-03-24T00:43:42.505Z,4.80
2018-03-24T00:46:08.935Z,4.80
2018-03-24T00:48:35.317Z,4.70
2018-03-24T00:51:01.773Z,4.70
2018-03-24T00:53:28.238Z,4.60
2018-03-24T00:55:54.616Z,4.50
2018-03-24T00:58:21.027Z,4.50
2018-03-24T01:00:47.709Z,4.50
2018-03-24T01:03:14.918Z,4.40
2018-03-24T01:05:41.314Z,4.40
2018-03-24T01:08:07.817Z,4.30
2018-03-24T01:10:34.951Z,4.20
2018-03-24T01:13:01.362Z,4.20
2018-03-24T01:15:27.786Z,4.20
2018-03-24T01:17:54.214Z,4.20
2018-03-24T01:20:20.595Z,4.20
2018-03-24T01:22:47.028Z,4.20
2018-03-24T01:25:14.117Z,4.10
2018-03-24T01:27:40.544Z,4.10
2018-03-24T01:30:06.940Z,4.00
2018-03-24T01:32:33.325Z,3.90
2018-03-24T01:34:59.724Z,3.90
2018-03-24T01:37:26.187Z,3.80
2018-03-24T01:39:52.578Z,3.80
2018-03-24T01:42:18.977Z,3.80
2018-03-24T01:44:46.090Z,3.80
2018-03-24T01:47:12.475Z,3.80
2018-03-24T01:49:39.667Z,3.70
2018-03-24T01:52:06.059Z,3.70
2018-03-24T01:54:32.479Z,3.60
2018-03-24T01:56:58.885Z,3.50
2018-03-24T01:59:26.007Z,3.50
2018-03-24T02:01:52.367Z,3.50
2018-03-24T02:04:18.801Z,3.60
2018-03-24T02:06:45.214Z,3.50
2018-03-24T02:09:11.632Z,3.50
2018-03-24T02:11:37.990Z,3.50
2018-03-24T02:14:04.453Z,3.40
2018-03-24T02:16:30.837Z,3.40
2018-03-24T02:18:57.218Z,3.40
2018-03-24T02:24:21.158Z,3.30
2018-03-24T02:26:47.551Z,3.30
2018-03-24T02:29:13.914Z,3.20
2018-03-24T02:31:40.358Z,3.20
2018-03-24T02:34:06.746Z,3.20
2018-03-24T02:36:33.131Z,3.20
2018-03-24T02:38:59.522Z,3.20
2018-03-24T02:41:25.901Z,3.20
2018-03-24T02:43:53.061Z,3.30
2018-03-24T02:46:20.188Z,3.30
2018-03-24T02:48:46.581Z,3.30
2018-03-24T02:51:13.005Z,3.20
2018-03-24T02:53:39.371Z,3.10
2018-03-24T02:56:05.721Z,3.10
2018-03-24T02:58:32.115Z,3.10
2018-03-24T03:00:58.606Z,3.00
2018-03-24T03:03:25.034Z,2.90
2018-03-24T03:05:52.292Z,2.90
2018-03-24T03:08:18.715Z,2.90
2018-03-24T03:10:45.107Z,2.90
2018-03-24T03:13:11.510Z,2.80
2018-03-24T03:15:37.911Z,2.80
2018-03-24T03:18:04.307Z,2.80
2018-03-24T03:20:30.758Z,2.90
2018-03-24T03:22:57.914Z,2.80
2018-03-24T03:25:24.306Z,2.80
2018-03-24T03:27:50.812Z,2.80
2018-03-24T03:33:21.742Z,2.60
2018-03-24T03:35:48.158Z,2.60
2018-03-24T03:38:15.250Z,2.60
2018-03-24T03:40:41.665Z,2.60
2018-03-24T03:43:08.084Z,2.70
2018-03-24T03:45:34.516Z,2.70
2018-03-24T03:48:00.914Z,2.70
2018-03-24T03:50:28.091Z,2.70
2018-03-24T03:52:54.496Z,2.70
2018-03-24T03:55:20.866Z,2.70
2018-03-24T03:57:47.330Z,2.60
2018-03-24T04:00:13.677Z,2.60
2018-03-24T04:02:40.090Z,2.60
2018-03-24T04:05:06.464Z,2.60
2018-03-24T04:07:33.671Z,2.50
2018-03-24T04:10:00.041Z,2.40
2018-03-24T04:12:27.199Z,2.50
2018-03-24T04:14:53.631Z,2.50
2018-03-24T04:17:20.013Z,2.40
2018-03-24T04:19:46.407Z,2.40
2018-03-24T04:22:12.797Z,2.40
2018-03-24T04:24:39.955Z,2.40
2018-03-24T04:27:07.086Z,2.40
2018-03-24T04:29:33.521Z,2.40
2018-03-24T04:31:59.873Z,2.40
2018-03-24T04:34:27.056Z,2.40
2018-03-24T04:36:53.433Z,2.30
2018-03-24T04:39:19.816Z,2.30
2018-03-24T04:41:46.168Z,2.30
2018-03-24T04:44:12.566Z,2.20
2018-03-24T04:46:38.989Z,2.20
2018-03-24T04:49:05.412Z,2.20
2018-03-24T04:51:31.826Z,2.10
2018-03-24T04:53:58.949Z,2.00
2018-03-24T04:56:25.338Z,2.00
2018-03-24T04:58:51.758Z,2.00
2018-03-24T05:01:18.181Z,2.00
2018-03-24T05:03:44.597Z,2.10
2018-03-24T05:06:10.969Z,2.10
2018-03-24T05:08:37.376Z,2.20
2018-03-24T05:11:04.533Z,2.20
2018-03-24T05:13:31.667Z,2.00
2018-03-24T05:15:58.824Z,2.00
2018-03-24T05:18:25.273Z,2.00
2018-03-24T05:20:51.686Z,2.10
2018-03-24T05:23:18.851Z,2.10
2018-03-24T05:25:45.242Z,2.10
2018-03-24T05:28:11.642Z,2.10
2018-03-24T05:30:38.017Z,2.10
2018-03-24T05:33:05.155Z,2.10
2018-03-24T05:35:32.282Z,2.00
2018-03-24T05:37:58.668Z,2.00
2018-03-24T05:40:25.082Z,2.00
2018-03-24T05:42:52.242Z,2.20
2018-03-24T05:45:18.657Z,2.10
2018-03-24T05:47:45.782Z,2.20
2018-03-24T05:50:12.169Z,2.20
2018-03-24T05:52:38.551Z,2.20
2018-03-24T05:55:04.960Z,2.20
2018-03-24T05:57:31.366Z,2.20
2018-03-24T05:59:57.810Z,2.20
2018-03-24T06:02:24.207Z,2.20
2018-03-24T06:04:50.590Z,2.20
2018-03-24T06:07:16.978Z,2.20
2018-03-24T06:09:43.433Z,2.30
2018-03-24T06:12:09.853Z,2.30
2018-03-24T06:14:36.260Z,2.30
2018-03-24T06:17:02.709Z,2.20
2018-03-24T06:19:29.090Z,2.20
2018-03-24T06:21:56.260Z,2.30
2018-03-24T06:24:22.645Z,2.30
2018-03-24T06:26:49.061Z,2.40
2018-03-24T06:29:15.494Z,2.30
2018-03-24T06:31:53.805Z,2.30
2018-03-24T06:34:20.956Z,2.30
2018-03-24T06:36:48.302Z,2.30
2018-03-24T06:39:14.669Z,2.40
2018-03-24T06:41:41.086Z,2.40
2018-03-24T06:44:07.495Z,2.50
2018-03-24T06:46:33.866Z,2.50
2018-03-24T06:49:00.278Z,2.50
2018-03-24T06:51:26.688Z,2.60
2018-03-24T06:53:53.086Z,2.60
2018-03-24T06:56:19.505Z,2.70
2018-03-24T06:58:46.695Z,2.80
2018-03-24T07:01:13.089Z,2.80
2018-03-24T07:03:39.608Z,2.90
2018-03-24T07:06:06.015Z,2.90
2018-03-24T07:08:32.394Z,3.00
2018-03-24T07:10:58.783Z,3.00
2018-03-24T07:13:25.223Z,3.00
2018-03-24T07:15:51.637Z,3.10
2018-03-24T07:18:18.051Z,3.00
2018-03-24T07:20:44.440Z,3.10
2018-03-24T07:23:11.556Z,3.20
2018-03-24T07:25:38.014Z,3.20
2018-03-24T07:28:05.132Z,3.40
2018-03-24T07:30:31.579Z,3.40
2018-03-24T07:32:58.009Z,3.50
2018-03-24T07:35:24.471Z,3.70
2018-03-24T07:37:51.624Z,3.90
2018-03-24T07:40:18.753Z,4.00
2018-03-24T07:42:45.937Z,4.10
2018-03-24T07:45:12.360Z,4.00
2018-03-24T07:47:38.823Z,4.20
2018-03-24T07:50:05.217Z,4.30
2018-03-24T07:52:31.610Z,4.40
2018-03-24T07:54:58.014Z,4.50
2018-03-24T07:57:24.397Z,4.60
2018-03-24T07:59:51.557Z,4.80
2018-03-24T08:02:17.914Z,4.80
2018-03-24T08:04:44.388Z,4.90
2018-03-24T08:07:10.766Z,5.00
2018-03-24T08:09:37.206Z,5.00
2018-03-24T08:12:03.677Z,5.20
2018-03-24T08:14:30.123Z,5.30
2018-03-24T08:16:57.331Z,5.40
2018-03-24T08:19:23.768Z,5.40
2018-03-24T08:21:50.167Z,5.50
2018-03-24T08:24:16.533Z,5.60
2018-03-24T08:26:42.936Z,5.60
2018-03-24T08:29:09.375Z,5.70
2018-03-24T08:31:35.737Z,5.70
2018-03-24T08:34:02.135Z,5.70
2018-03-24T08:36:28.581Z,5.80
2018-03-24T08:38:54.988Z,5.90
2018-03-24T08:41:21.447Z,6.00
2018-03-24T08:43:47.847Z,6.10
2018-03-24T08:46:14.251Z,6.20
2018-03-24T08:48:41.375Z,6.30
2018-03-24T08:51:07.811Z,6.30
2018-03-24T08:53:34.191Z,6.40
2018-03-24T08:56:00.656Z,6.40
2018-03-24T08:58:27.043Z,6.40
2018-03-24T09:00:53.446Z,6.50
2018-03-24T09:03:19.854Z,6.50
2018-03-24T09:05:46.228Z,6.60
2018-03-24T09:08:12.646Z,6.60
2018-03-24T09:10:39.058Z,6.60
2018-03-24T09:13:05.501Z,6.80
2018-03-24T09:15:31.878Z,6.80
2018-03-24T09:17:58.281Z,6.90
2018-03-24T09:20:24.809Z,7.00
2018-03-24T09:22:51.223Z,7.10
2018-03-24T09:25:17.596Z,7.20
2018-03-24T09:27:44.012Z,7.10
2018-03-24T09:30:11.158Z,7.10
2018-03-24T09:32:38.331Z,7.30
2018-03-24T09:35:04.768Z,7.20
2018-03-24T09:37:31.170Z,7.30
2018-03-24T09:39:57.584Z,7.30
2018-03-24T09:42:24.748Z,7.30
2018-03-24T09:44:51.163Z,7.30
2018-03-24T09:47:18.257Z,7.50
2018-03-24T09:49:44.625Z,7.50
2018-03-24T09:52:10.975Z,7.50
2018-03-24T09:54:38.091Z,7.60
2018-03-24T09:57:04.478Z,7.60
2018-03-24T09:59:30.865Z,7.60
2018-03-24T10:01:57.325Z,7.70
2018-03-24T10:04:24.477Z,7.90
2018-03-24T10:06:51.610Z,8.00
2018-03-24T10:09:18.756Z,7.90
2018-03-24T10:11:45.178Z,7.90
2018-03-24T10:14:11.701Z,7.90
2018-03-24T10:16:38.922Z,8.00
2018-03-24T10:19:05.371Z,8.00
2018-03-24T10:24:39.017Z,8.20
2018-03-24T10:27:05.463Z,8.30
2018-03-24T10:29:32.624Z,8.40
2018-03-24T10:31:59.782Z,8.50
2018-03-24T10:34:26.244Z,8.40
2018-03-24T10:36:53.406Z,8.40
2018-03-24T10:39:19.834Z,8.40
2018-03-24T10:41:46.265Z,8.50
2018-03-24T10:44:12.645Z,8.50
2018-03-24T10:46:39.050Z,8.40
2018-03-24T10:49:05.499Z,8.50
2018-03-24T10:51:31.913Z,8.50
2018-03-24T10:53:58.290Z,8.60
2018-03-24T10:56:24.682Z,8.60
2018-03-24T10:58:51.830Z,8.70
2018-03-24T11:01:20.105Z,8.70
2018-03-24T11:03:47.260Z,8.80
2018-03-24T11:06:14.404Z,8.70
2018-03-24T11:08:40.837Z,8.70
2018-03-24T11:11:08.061Z,8.90
2018-03-24T11:13:34.441Z,8.90
2018-03-24T11:16:00.846Z,8.90
2018-03-24T11:18:27.962Z,8.70
2018-03-24T11:20:54.397Z,8.70
2018-03-24T11:23:20.782Z,8.70
2018-03-24T11:25:47.164Z,8.80
2018-03-24T11:28:13.588Z,9.00
2018-03-24T11:30:39.974Z,9.00
2018-03-24T11:33:06.442Z,9.00
2018-03-24T11:35:32.811Z,9.00
2018-03-24T11:37:59.969Z,9.10
2018-03-24T11:40:27.861Z,9.10
2018-03-24T11:42:54.269Z,9.00
2018-03-24T11:45:20.666Z,9.20
2018-03-24T11:47:47.053Z,9.30
2018-03-24T11:50:13.520Z,9.40
2018-03-24T11:52:39.876Z,9.40
2018-03-24T11:55:06.311Z,9.40
2018-03-24T11:57:33.400Z,9.50
2018-03-24T12:00:06.035Z,9.50
2018-03-24T12:02:33.147Z,9.50
2018-03-24T12:04:59.527Z,9.50
2018-03-24T12:07:26.662Z,9.50
2018-03-24T12:09:53.755Z,9.50
2018-03-24T12:12:20.185Z,9.50
2018-03-24T12:14:46.610Z,9.60
2018-03-24T12:17:13.054Z,9.40
2018-03-24T12:19:39.450Z,9.40
2018-03-24T12:22:05.854Z,9.40
2018-03-24T12:24:32.251Z,9.50
2018-03-24T12:26:58.657Z,9.70
2018-03-24T12:29:25.126Z,9.70
2018-03-24T12:31:51.521Z,9.80
2018-03-24T12:34:17.918Z,9.70
2018-03-24T12:36:45.100Z,9.60
2018-03-24T12:39:11.459Z,9.60
2018-03-24T12:41:37.902Z,9.70
2018-03-24T12:44:04.302Z,9.80
2018-03-24T12:46:30.679Z,9.80
2018-03-24T12:48:57.095Z,9.90
2018-03-24T12:51:23.503Z,9.90
2018-03-24T12:53:49.907Z,9.90
2018-03-24T12:56:16.288Z,9.90
2018-03-24T12:58:42.743Z,10.00
2018-03-24T13:01:09.863Z,9.90
2018-03-24T13:03:36.240Z,9.90
2018-03-24T13:06:02.685Z,9.90
2018-03-24T13:08:29.076Z,9.90
2018-03-24T13:10:55.440Z,10.00
2018-03-24T13:13:21.866Z,10.00
2018-03-24T13:15:48.317Z,10.10
2018-03-24T13:18:14.718Z,10.00
2018-03-24T13:20:41.860Z,10.10
2018-03-24T13:23:09.059Z,10.10
2018-03-24T13:25:35.484Z,10.10
2018-03-24T13:28:01.849Z,10.30
2018-03-24T13:30:28.311Z,10.20
2018-03-24T13:32:54.704Z,10.20
2018-03-24T13:35:21.114Z,10.30
2018-03-24T13:37:47.485Z,10.40
2018-03-24T13:40:13.941Z,10.30
2018-03-24T13:42:41.061Z,10.40
2018-03-24T13:45:07.627Z,10.40
2018-03-24T13:47:34.742Z,10.50
2018-03-24T13:50:01.158Z,10.50
2018-03-24T13:52:27.551Z,10.50
2018-03-24T13:54:54.015Z,10.50
2018-03-24T13:57:20.414Z,10.60
2018-03-24T13:59:46.799Z,10.60
2018-03-24T14:02:13.199Z,10.60
2018-03-24T14:04:39.597Z,10.70
2018-03-24T14:07:05.993Z,10.60
2018-03-24T14:09:32.394Z,10.60
2018-03-24T14:11:58.804Z,10.60
2018-03-24T14:14:25.230Z,10.80
2018-03-24T14:16:51.638Z,10.90
2018-03-24T14:19:18.014Z,10.90
2018-03-24T14:21:44.432Z,10.80
2018-03-24T14:24:10.799Z,10.80
2018-03-24T14:26:37.231Z,10.80
2018-03-24T14:29:03.651Z,10.90
2018-03-24T14:31:30.070Z,11.00
2018-03-24T14:33:56.478Z,11.10
2018-03-24T14:36:22.851Z,10.90
2018-03-24T14:38:49.236Z,10.80
2018-03-24T14:41:15.648Z,10.70
2018-03-24T14:43:42.766Z,10.90
2018-03-24T14:46:09.129Z,10.90
2018-03-24T14:48:36.283Z,11.10
2018-03-24T14:51:02.663Z,11.10
2018-03-24T14:53:29.122Z,11.10
2018-03-24T14:55:56.235Z,11.30
2018-03-24T14:58:22.613Z,11.30
2018-03-24T15:00:50.043Z,11.50
2018-03-24T15:03:16.458Z,11.50
2018-03-24T15:05:42.882Z,11.90
2018-03-24T15:08:09.246Z,12.70
2018-03-24T15:10:35.633Z,13.50
2018-03-24T15:13:02.054Z,13.90
2018-03-24T15:15:28.501Z,14.50
2018-03-24T15:17:54.889Z,15.30
2018-03-24T15:20:21.306Z,14.80
2018-03-24T15:22:47.726Z,14.40
2018-03-24T15:25:14.149Z,14.70
2018-03-24T15:27:40.564Z,14.90
2018-03-24T15:30:25.432Z,15.00
2018-03-24T15:32:51.863Z,15.10
2018-03-24T15:35:32.797Z,14.80
2018-03-24T15:37:59.954Z,14.60
2018-03-24T15:40:26.426Z,14.60
2018-03-24T15:42:52.810Z,14.50
2018-03-24T15:45:19.308Z,13.70
2018-03-24T15:47:46.510Z,12.40
2018-03-24T15:50:12.914Z,12.40
2018-03-24T15:52:39.380Z,12.50
2018-03-24T15:55:05.797Z,12.40
2018-03-24T15:57:32.256Z,12.40
2018-03-24T15:59:59.403Z,12.10
2018-03-24T16:02:25.830Z,12.00
2018-03-24T16:04:52.993Z,11.90
2018-03-24T16:07:19.386Z,11.90
2018-03-24T16:09:45.793Z,11.80
2018-03-24T16:12:12.232Z,11.80
2018-03-24T16:14:38.670Z,11.80
2018-03-24T16:17:05.089Z,11.80
2018-03-24T16:19:32.174Z,11.70
2018-03-24T16:21:58.639Z,11.70
2018-03-24T16:24:25.821Z,11.50
2018-03-24T16:26:53.018Z,11.30
2018-03-24T16:29:19.413Z,11.30
2018-03-24T16:31:45.861Z,11.20
2018-03-24T16:34:12.315Z,11.30
2018-03-24T16:36:39.471Z,11.20
2018-03-24T16:39:05.958Z,11.10
2018-03-24T16:41:32.386Z,11.10
2018-03-24T16:43:58.792Z,11.00
2018-03-24T16:46:25.943Z,10.90
2018-03-24T16:48:53.115Z,10.70
2018-03-24T16:51:19.670Z,10.70
2018-03-24T16:53:46.150Z,10.70
2018-03-24T16:56:13.341Z,10.70
2018-03-24T16:58:39.786Z,10.70
2018-03-24T17:01:06.204Z,10.70
2018-03-24T17:03:32.638Z,10.70
2018-03-24T17:05:59.043Z,10.70
2018-03-24T17:08:26.194Z,10.60
2018-03-24T17:10:53.368Z,10.60
2018-03-24T17:13:19.836Z,10.60
2018-03-24T17:15:47.143Z,10.50
2018-03-24T17:18:13.532Z,10.50
2018-03-24T17:20:39.964Z,10.50
2018-03-24T17:23:06.480Z,10.40
2018-03-24T17:25:32.915Z,10.40
2018-03-24T17:27:59.373Z,10.40
2018-03-24T17:30:26.572Z,10.30
2018-03-24T17:32:52.938Z,10.30
2018-03-24T17:35:19.358Z,10.30
2018-03-24T17:37:45.961Z,10.20
2018-03-24T17:40:12.402Z,10.00
2018-03-24T17:42:38.800Z,10.00
2018-03-24T17:45:05.216Z,9.90
2018-03-24T17:47:32.858Z,9.80
2018-03-24T17:49:59.319Z,9.80
2018-03-24T17:52:26.491Z,9.80
2018-03-24T17:54:52.890Z,9.70
2018-03-24T17:57:20.138Z,9.80
2018-03-24T17:59:47.315Z,9.70
2018-03-24T18:02:13.731Z,9.70
2018-03-24T18:04:40.171Z,9.60
2018-03-24T18:07:06.632Z,9.50
2018-03-24T18:09:33.087Z,9.40
2018-03-24T18:11:59.537Z,9.30
2018-03-24T18:14:25.978Z,9.20
2018-03-24T18:16:53.209Z,9.00
2018-03-24T18:19:19.737Z,9.00
2018-03-24T18:21:46.131Z,8.90
2018-03-24T18:24:12.599Z,8.90
2018-03-24T18:26:39.068Z,8.90
2018-03-24T18:29:05.548Z,8.90
2018-03-24T18:31:31.939Z,8.80
2018-03-24T18:33:58.422Z,8.80
2018-03-24T18:36:24.890Z,8.80
2018-03-24T18:38:51.474Z,8.70
2018-03-24T18:41:18.025Z,8.70
2018-03-24T18:43:44.382Z,8.70
2018-03-24T18:46:11.022Z,8.70
2018-03-24T18:48:38.619Z,8.60
2018-03-24T18:51:05.134Z,8.60
2018-03-24T18:53:31.603Z,8.70
2018-03-24T18:55:58.129Z,8.70
2018-03-24T18:58:24.558Z,8.60
2018-03-24T19:00:50.968Z,8.50
2018-03-24T19:03:17.446Z,8.50
2018-03-24T19:05:43.857Z,8.50
2018-03-24T19:08:11.064Z,8.40
2018-03-24T19:13:15.473Z,8.40
2018-03-24T19:15:41.952Z,8.30
2018-03-24T19:18:08.380Z,8.30
2018-03-24T19:20:34.811Z,8.20
2018-03-24T19:23:01.252Z,8.20
2018-03-24T19:25:27.654Z,8.10
2018-03-24T19:27:54.802Z,8.10
2018-03-24T19:30:22.126Z,8.10
2018-03-24T19:32:48.550Z,8.00
2018-03-24T19:35:14.955Z,8.00
2018-03-24T19:37:41.363Z,8.00
2018-03-24T19:40:08.520Z,7.90
2018-03-24T19:42:34.985Z,7.80
2018-03-24T19:45:01.451Z,7.80
2018-03-24T19:47:27.925Z,7.70
2018-03-24T19:49:54.373Z,7.70
2018-03-24T19:52:21.409Z,7.60
2018-03-24T19:54:47.852Z,7.50
2018-03-24T19:57:14.298Z,7.50
2018-03-24T19:59:40.744Z,7.40
2018-03-24T20:02:07.203Z,7.30
2018-03-24T20:04:34.435Z,7.20
2018-03-24T20:07:01.620Z,7.10
2018-03-24T20:09:28.082Z,7.10
2018-03-24T20:11:54.531Z,7.00
2018-03-24T20:14:21.054Z,7.00
2018-03-24T20:16:47.470Z,7.00
2018-03-24T20:19:13.987Z,6.90
2018-03-24T20:21:40.398Z,6.80
2018-03-24T20:24:07.059Z,6.70
2018-03-24T20:26:33.541Z,6.70
2018-03-24T20:28:59.993Z,6.70
2018-03-24T20:31:26.449Z,6.70
2018-03-24T20:33:52.962Z,6.60
2018-03-24T20:36:20.197Z,6.50
2018-03-24T20:38:46.612Z,6.50
2018-03-24T20:41:13.109Z,6.50
2018-03-24T20:43:39.583Z,6.50
2018-03-24T20:46:06.890Z,6.50
2018-03-24T20:48:34.076Z,6.50
2018-03-24T20:51:00.608Z,6.50
2018-03-24T20:53:27.072Z,6.40
2018-03-24T20:55:54.294Z,6.30
2018-03-24T20:58:20.727Z,6.20
2018-03-24T21:00:47.204Z,6.20
2018-03-24T21:03:13.725Z,6.10
2018-03-24T21:05:41.018Z,6.10
2018-03-24T21:08:07.507Z,6.10
2018-03-24T21:10:34.707Z,6.10
2018-03-24T21:13:01.269Z,6.00
2018-03-24T21:15:27.730Z,6.10
2018-03-24T21:17:55.008Z,6.10
2018-03-24T21:20:21.502Z,6.10
2018-03-24T21:22:48.726Z,5.90
2018-03-24T21:25:15.192Z,5.90
2018-03-24T21:27:41.691Z,5.90
2018-03-24T21:30:08.233Z,6.00
2018-03-24T21:32:34.652Z,6.00
2018-03-24T21:35:01.219Z,6.00
2018-03-24T21:37:27.658Z,6.00
2018-03-24T21:39:54.158Z,6.00
2018-03-24T21:42:20.563Z,6.00
2018-03-24T21:44:47.032Z,5.90
2018-03-24T21:47:13.538Z,5.90
2018-03-24T21:49:39.979Z,5.90
2018-03-24T21:52:06.531Z,5.80
2018-03-24T21:54:32.968Z,5.70
2018-03-24T21:56:59.415Z,5.70
2018-03-24T21:59:25.826Z,5.70
2018-03-24T22:01:53.079Z,5.60
2018-03-24T22:04:19.481Z,5.50
2018-03-24T22:06:45.926Z,5.60
2018-03-24T22:09:12.392Z,5.70
2018-03-24T22:11:39.685Z,5.50
2018-03-24T22:14:06.194Z,5.50
2018-03-24T22:16:32.709Z,5.50
2018-03-24T22:18:59.876Z,5.40
2018-03-24T22:21:26.364Z,5.40
2018-03-24T22:23:52.862Z,5.40
2018-03-24T22:26:19.378Z,5.50
2018-03-24T22:28:45.777Z,5.40
2018-03-24T22:31:12.207Z,5.30
2018-03-24T22:33:38.644Z,5.30
2018-03-24T22:36:05.840Z,5.10
2018-03-24T22:38:32.315Z,5.10
2018-03-24T22:40:59.508Z,5.10
2018-03-24T22:43:25.999Z,5.00
2018-03-24T22:45:52.413Z,5.00
2018-03-24T22:48:18.897Z,5.00
2018-03-24T22:50:45.349Z,4.90
2018-03-24T22:53:12.502Z,4.90
2018-03-24T22:55:38.958Z,4.90
2018-03-24T22:58:05.390Z,4.80
2018-03-24T23:00:31.867Z,4.80
2018-03-24T23:02:59.056Z,4.90
2018-03-24T23:05:25.484Z,4.90
2018-03-24T23:07:52.679Z,4.90
2018-03-24T23:10:19.097Z,4.90
2018-03-24T23:12:45.580Z,4.80
2018-03-24T23:15:12.023Z,4.70
2018-03-24T23:17:38.468Z,4.60
2018-03-24T23:20:04.975Z,4.60
2018-03-24T23:22:31.370Z,4.60
2018-03-24T23:24:57.813Z,4.50
2018-03-24T23:27:24.220Z,4.40
2018-03-24T23:29:50.676Z,4.30
2018-03-24T23:32:17.890Z,4.40
2018-03-24T23:34:45.097Z,4.40
2018-03-24T23:37:11.510Z,4.40
2018-03-24T23:39:45.576Z,4.50
2018-03-24T23:42:12.002Z,4.50
2018-03-24T23:44:38.436Z,4.50
2018-03-24T23:47:04.844Z,4.50
2018-03-24T23:49:32.173Z,4.40
2018-03-24T23:51:59.298Z,4.10
2018-03-24T23:54:25.730Z,4.10
2018-03-24T23:56:53.112Z,4.10
2018-03-24T23:59:20.224Z,4.10
